Time;durP1;ratioP1;P1;durP2;ratioP2;P2;SDS_P1;SDS_P2;PMS_P1;PMS_P2;Temp;Humidity;BMP_temperature;BMP_pressure;BME280_temperature;BME280_humidity;BME280_pressure;Samples;Min_cycle;Max_cycle;Signal;HPM_P1;HPM_P2
2023/04/21 00:01:46;;;;;;;32.17;22.08;;;;;;;;;;5071239;28;20216;-65
2023/04/21 00:04:12;;;;;;;31.98;22.45;;;;;;;;;;5070260;28;20218;-64
2023/04/21 00:06:40;;;;;;;33.70;23.98;;;;;;;;;;5086929;28;20673;-65
2023/04/21 00:09:05;;;;;;;30.45;21.38;;;;;;;;;;5086157;28;20264;-65
2023/04/21 00:11:31;;;;;;;33.78;24.55;;;;;;;;;;5069111;28;20565;-65
2023/04/21 00:13:56;;;;;;;34.95;26.80;;;;;;;;;;5071016;28;20260;-64
2023/04/21 00:16:21;;;;;;;40.55;27.55;;;;;;;;;;5080402;28;20228;-64
2023/04/21 00:18:47;;;;;;;37.80;26.75;;;;;;;;;;5090247;28;20237;-64
2023/04/21 00:21:12;;;;;;;46.30;30.77;;;;;;;;;;5090742;28;20229;-64
2023/04/21 00:23:37;;;;;;;43.58;31.00;;;;;;;;;;5091207;28;20661;-64
2023/04/21 00:26:02;;;;;;;43.45;31.00;;;;;;;;;;5090080;28;20677;-64
2023/04/21 00:28:28;;;;;;;42.17;31.00;;;;;;;;;;5090868;28;20233;-64
2023/04/21 00:30:53;;;;;;;44.40;30.40;;;;;;;;;;5090956;28;20215;-65
2023/04/21 00:33:19;;;;;;;39.67;28.48;;;;;;;;;;5089750;28;20210;-64
2023/04/21 00:35:45;;;;;;;36.20;26.38;;;;;;;;;;5091149;28;20209;-64
2023/04/21 00:38:10;;;;;;;34.85;26.23;;;;;;;;;;5090579;28;20206;-64
2023/04/21 00:40:35;;;;;;;36.50;25.67;;;;;;;;;;5089605;28;20218;-64
2023/04/21 00:43:00;;;;;;;38.55;26.25;;;;;;;;;;5090286;28;20292;-64
2023/04/21 00:45:26;;;;;;;33.80;24.90;;;;;;;;;;5073351;28;20213;-64
2023/04/21 00:47:51;;;;;;;36.30;26.10;;;;;;;;;;5069609;28;20210;-64
2023/04/21 00:50:16;;;;;;;35.38;26.08;;;;;;;;;;5070093;28;20289;-64
2023/04/21 00:52:42;;;;;;;32.25;24.35;;;;;;;;;;5070599;28;20355;-66
2023/04/21 00:55:08;;;;;;;34.20;24.77;;;;;;;;;;5059749;28;20287;-65
2023/04/21 00:57:34;;;;;;;34.10;25.58;;;;;;;;;;5060233;28;20252;-65
2023/04/21 01:00:00;;;;;;;34.03;24.92;;;;;;;;;;5060699;28;20317;-65
2023/04/21 01:02:25;;;;;;;34.83;24.95;;;;;;;;;;5057789;28;20537;-65
2023/04/21 01:04:50;;;;;;;33.75;24.27;;;;;;;;;;5070828;28;20221;-65
2023/04/21 01:07:15;;;;;;;35.13;25.17;;;;;;;;;;5067216;28;20217;-65
2023/04/21 01:09:41;;;;;;;36.28;27.20;;;;;;;;;;5070069;28;20338;-65
2023/04/21 01:12:07;;;;;;;36.72;26.27;;;;;;;;;;5075315;28;20204;-65
2023/04/21 01:14:32;;;;;;;34.55;25.98;;;;;;;;;;5079648;28;20225;-65
2023/04/21 01:16:58;;;;;;;33.13;24.98;;;;;;;;;;5079060;28;20497;-65
2023/04/21 01:19:23;;;;;;;35.53;25.88;;;;;;;;;;5079411;28;20736;-65
2023/04/21 01:21:50;;;;;;;35.90;25.63;;;;;;;;;;5079809;28;20228;-65
2023/04/21 01:24:15;;;;;;;35.60;25.52;;;;;;;;;;5075295;28;20275;-65
2023/04/21 01:26:41;;;;;;;32.30;24.48;;;;;;;;;;5072880;28;20209;-65
2023/04/21 01:29:06;;;;;;;36.53;25.73;;;;;;;;;;5055853;28;20207;-65
2023/04/21 01:31:31;;;;;;;32.10;24.17;;;;;;;;;;5057001;28;20250;-65
2023/04/21 01:33:57;;;;;;;33.17;25.38;;;;;;;;;;5079635;28;20304;-65
2023/04/21 01:36:22;;;;;;;34.33;25.70;;;;;;;;;;5078788;28;20773;-65
2023/04/21 01:38:47;;;;;;;38.40;27.55;;;;;;;;;;5079937;28;20205;-66
2023/04/21 01:41:12;;;;;;;38.72;27.10;;;;;;;;;;5079675;28;20704;-65
2023/04/21 01:43:38;;;;;;;36.40;26.98;;;;;;;;;;5077033;28;20305;-65
2023/04/21 01:46:04;;;;;;;35.20;25.40;;;;;;;;;;5058208;28;20634;-65
2023/04/21 01:48:29;;;;;;;33.58;25.23;;;;;;;;;;5053096;28;20210;-65
2023/04/21 01:50:54;;;;;;;32.33;24.60;;;;;;;;;;5070939;28;20704;-65
2023/04/21 01:53:19;;;;;;;33.10;25.20;;;;;;;;;;5073242;28;20220;-65
2023/04/21 01:55:45;;;;;;;33.65;24.70;;;;;;;;;;5079654;28;20288;-65
2023/04/21 01:58:10;;;;;;;37.25;27.70;;;;;;;;;;5079062;28;20622;-65
2023/04/21 02:00:35;;;;;;;37.22;26.85;;;;;;;;;;5079622;28;20312;-65
2023/04/21 02:03:01;;;;;;;30.92;24.20;;;;;;;;;;5066809;28;20636;-64
2023/04/21 02:05:26;;;;;;;34.95;25.50;;;;;;;;;;5069771;28;20633;-65
2023/04/21 02:07:51;;;;;;;27.52;21.98;;;;;;;;;;5072578;28;20223;-65
2023/04/21 02:10:16;;;;;;;32.03;24.15;;;;;;;;;;5069140;28;20298;-65
2023/04/21 02:12:42;;;;;;;26.85;21.67;;;;;;;;;;5068880;28;20734;-65
2023/04/21 02:15:07;;;;;;;29.10;22.75;;;;;;;;;;5072630;28;20237;-65
2023/04/21 02:17:32;;;;;;;32.53;23.38;;;;;;;;;;5090908;28;20606;-66
2023/04/21 02:19:58;;;;;;;31.25;24.10;;;;;;;;;;5093334;28;20226;-65
2023/04/21 02:22:23;;;;;;;32.20;25.25;;;;;;;;;;5093072;28;20292;-65
2023/04/21 02:24:49;;;;;;;34.53;26.65;;;;;;;;;;5092754;28;20213;-65
2023/04/21 02:27:14;;;;;;;39.55;28.15;;;;;;;;;;5092893;28;20220;-65
2023/04/21 02:29:40;;;;;;;37.60;26.75;;;;;;;;;;5093266;28;20637;-65
2023/04/21 02:32:05;;;;;;;35.08;26.48;;;;;;;;;;5092134;28;20201;-65
2023/04/21 02:34:30;;;;;;;44.28;30.42;;;;;;;;;;5093600;28;20210;-65
2023/04/21 02:36:55;;;;;;;37.72;26.98;;;;;;;;;;5093120;28;20206;-65
2023/04/21 02:39:21;;;;;;;37.30;27.90;;;;;;;;;;5091981;28;20206;-65
2023/04/21 02:41:46;;;;;;;31.23;24.70;;;;;;;;;;5093113;28;20300;-65
2023/04/21 02:44:11;;;;;;;32.28;24.35;;;;;;;;;;5085708;28;20206;-65
2023/04/21 02:46:39;;;;;;;31.80;24.95;;;;;;;;;;5071996;28;20289;-65
2023/04/21 02:49:04;;;;;;;38.88;26.75;;;;;;;;;;5072572;28;20954;-65
2023/04/21 02:51:31;;;;;;;39.20;27.23;;;;;;;;;;5072673;28;20206;-65
2023/04/21 02:53:56;;;;;;;38.63;28.42;;;;;;;;;;5071412;28;20572;-66
2023/04/21 02:56:21;;;;;;;33.22;26.00;;;;;;;;;;5062129;28;20720;-65
2023/04/21 02:58:47;;;;;;;32.22;25.77;;;;;;;;;;5074356;28;20268;-65
2023/04/21 03:01:12;;;;;;;34.95;26.67;;;;;;;;;;5054447;28;20223;-65
2023/04/21 03:03:37;;;;;;;34.13;26.35;;;;;;;;;;5055264;28;20223;-66
2023/04/21 03:06:03;;;;;;;41.53;30.05;;;;;;;;;;5058371;28;20851;-65
2023/04/21 03:08:28;;;;;;;35.75;27.83;;;;;;;;;;5079618;28;20233;-66
2023/04/21 03:10:54;;;;;;;38.42;28.38;;;;;;;;;;5063306;28;20246;-66
2023/04/21 03:13:19;;;;;;;39.75;28.85;;;;;;;;;;5062257;28;20233;-66
2023/04/21 03:15:45;;;;;;;37.45;28.80;;;;;;;;;;5062251;28;20214;-66
2023/04/21 03:18:10;;;;;;;34.88;27.05;;;;;;;;;;5061868;28;20252;-66
2023/04/21 03:20:35;;;;;;;40.30;29.42;;;;;;;;;;5062021;28;20560;-66
2023/04/21 03:23:01;;;;;;;42.33;30.70;;;;;;;;;;5053948;28;20230;-64
2023/04/21 03:25:26;;;;;;;41.65;31.10;;;;;;;;;;5074111;28;20206;-66
2023/04/21 03:27:52;;;;;;;38.83;30.52;;;;;;;;;;5074295;28;20218;-66
2023/04/21 03:30:17;;;;;;;44.05;32.08;;;;;;;;;;5080054;28;20287;-66
2023/04/21 03:32:43;;;;;;;42.20;32.33;;;;;;;;;;5082031;28;20209;-66
2023/04/21 03:35:08;;;;;;;40.67;31.85;;;;;;;;;;5080816;28;21147;-66
2023/04/21 03:37:33;;;;;;;44.00;32.35;;;;;;;;;;5081904;28;20301;-67
2023/04/21 03:39:59;;;;;;;43.55;31.15;;;;;;;;;;5081747;28;20221;-66
2023/04/21 03:42:25;;;;;;;51.88;35.22;;;;;;;;;;5080829;28;20208;-66
2023/04/21 03:44:50;;;;;;;44.58;34.00;;;;;;;;;;5064593;28;20215;-66
2023/04/21 03:47:16;;;;;;;41.08;31.52;;;;;;;;;;5053901;28;20214;-66
2023/04/21 03:49:41;;;;;;;43.40;33.92;;;;;;;;;;5053400;28;20732;-66
2023/04/21 03:52:06;;;;;;;39.17;31.77;;;;;;;;;;5059818;28;20218;-66
2023/04/21 03:54:32;;;;;;;43.28;33.22;;;;;;;;;;5062022;28;20210;-66
2023/04/21 03:56:57;;;;;;;47.58;35.28;;;;;;;;;;5064502;28;20244;-67
2023/04/21 03:59:22;;;;;;;47.33;34.95;;;;;;;;;;5061764;28;20648;-66
2023/04/21 04:01:48;;;;;;;44.28;34.28;;;;;;;;;;5061122;28;20262;-67
2023/04/21 04:04:13;;;;;;;47.00;35.58;;;;;;;;;;5060297;28;20233;-66
2023/04/21 04:06:38;;;;;;;48.15;34.95;;;;;;;;;;5060919;28;20214;-66
2023/04/21 04:09:03;;;;;;;51.13;36.33;;;;;;;;;;5053922;28;20356;-66
2023/04/21 04:11:30;;;;;;;51.42;37.20;;;;;;;;;;5053192;28;20733;-66
2023/04/21 04:13:55;;;;;;;52.42;38.15;;;;;;;;;;5073963;28;20389;-65
2023/04/21 04:16:21;;;;;;;54.20;39.05;;;;;;;;;;5071509;28;20297;-66
2023/04/21 04:18:46;;;;;;;54.90;38.80;;;;;;;;;;5060449;28;20212;-66
2023/04/21 04:21:11;;;;;;;54.83;38.58;;;;;;;;;;5061205;28;20222;-65
2023/04/21 04:23:36;;;;;;;52.38;37.97;;;;;;;;;;5060950;28;20670;-65
2023/04/21 04:26:04;;;;;;;60.75;41.95;;;;;;;;;;5060392;28;20221;-65
2023/04/21 04:28:29;;;;;;;56.60;39.15;;;;;;;;;;5075790;28;20578;-66
2023/04/21 04:30:55;;;;;;;49.28;36.40;;;;;;;;;;5071079;28;20708;-66
2023/04/21 04:33:20;;;;;;;54.72;38.80;;;;;;;;;;5071676;28;20692;-66
2023/04/21 04:35:46;;;;;;;56.97;38.80;;;;;;;;;;5073251;28;20209;-66
2023/04/21 04:38:13;;;;;;;56.90;39.92;;;;;;;;;;5075831;28;20252;-66
2023/04/21 04:40:38;;;;;;;52.38;37.88;;;;;;;;;;5080960;28;20240;-66
2023/04/21 04:43:04;;;;;;;51.08;37.85;;;;;;;;;;5080471;28;20202;-65
2023/04/21 04:45:31;;;;;;;55.83;39.80;;;;;;;;;;5077322;28;20735;-65
2023/04/21 04:47:57;;;;;;;57.67;39.30;;;;;;;;;;5080487;28;20244;-66
2023/04/21 04:50:23;;;;;;;52.45;38.38;;;;;;;;;;5080547;28;20229;-66
2023/04/21 04:52:48;;;;;;;52.65;38.35;;;;;;;;;;5076118;28;20911;-66
2023/04/21 04:55:14;;;;;;;47.35;35.45;;;;;;;;;;5063351;28;20209;-65
2023/04/21 04:57:39;;;;;;;55.88;38.60;;;;;;;;;;5072760;28;20202;-66
2023/04/21 05:00:07;;;;;;;58.35;40.03;;;;;;;;;;5075790;28;20218;-65
2023/04/21 05:02:32;;;;;;;54.67;38.15;;;;;;;;;;5071717;28;20210;-65
2023/04/21 05:04:57;;;;;;;53.00;38.17;;;;;;;;;;5060365;28;20213;-65
2023/04/21 05:07:23;;;;;;;56.40;38.75;;;;;;;;;;5059448;28;20281;-66
2023/04/21 05:09:48;;;;;;;55.50;39.25;;;;;;;;;;5059849;28;20226;-65
2023/04/21 05:12:13;;;;;;;52.13;37.53;;;;;;;;;;5060401;28;20682;-66
2023/04/21 05:14:38;;;;;;;52.55;37.38;;;;;;;;;;5058149;28;20206;-66
2023/04/21 05:17:04;;;;;;;53.72;37.42;;;;;;;;;;5053001;28;20206;-65
2023/04/21 05:19:29;;;;;;;59.57;46.13;;;;;;;;;;5051329;28;20422;-65
2023/04/21 05:21:59;;;;;;;59.85;41.67;;;;;;;;;;5053457;28;20224;-64
2023/04/21 05:24:24;;;;;;;64.88;46.42;;;;;;;;;;5079302;28;20447;-64
2023/04/21 05:26:50;;;;;;;54.40;38.25;;;;;;;;;;5080049;28;20692;-64
2023/04/21 05:29:15;;;;;;;54.03;37.20;;;;;;;;;;5079335;28;20270;-63
2023/04/21 05:31:40;;;;;;;60.97;40.90;;;;;;;;;;5080106;28;20780;-64
2023/04/21 05:34:06;;;;;;;49.58;36.38;;;;;;;;;;5079536;28;20643;-62
2023/04/21 05:36:31;;;;;;;55.50;38.28;;;;;;;;;;5078293;28;20267;-64
2023/04/21 05:38:56;;;;;;;58.80;39.05;;;;;;;;;;5073777;28;20209;-64
2023/04/21 05:41:22;;;;;;;57.80;39.40;;;;;;;;;;5072088;28;20251;-64
2023/04/21 05:43:48;;;;;;;61.85;41.75;;;;;;;;;;5068743;28;20210;-64
2023/04/21 05:46:13;;;;;;;56.83;40.20;;;;;;;;;;5059015;28;20471;-64
2023/04/21 05:48:39;;;;;;;54.97;38.15;;;;;;;;;;5060996;28;20287;-64
2023/04/21 05:51:11;;;;;;;61.45;41.42;;;;;;;;;;5063556;28;20293;-63
2023/04/21 05:53:36;;;;;;;53.72;37.83;;;;;;;;;;5077393;28;20552;-64
2023/04/21 05:56:02;;;;;;;53.08;37.70;;;;;;;;;;5062625;28;20263;-63
2023/04/21 05:58:27;;;;;;;50.10;35.13;;;;;;;;;;5081925;28;20221;-64
2023/04/21 06:00:52;;;;;;;50.08;36.60;;;;;;;;;;5079708;28;20284;-63
2023/04/21 06:03:18;;;;;;;46.03;33.58;;;;;;;;;;5059452;28;20810;-62
2023/04/21 06:05:43;;;;;;;42.13;32.80;;;;;;;;;;5056173;28;20263;-63
2023/04/21 06:08:08;;;;;;;51.88;35.97;;;;;;;;;;5060341;28;20301;-63
2023/04/21 06:10:33;;;;;;;41.95;32.42;;;;;;;;;;5081329;28;20569;-63
2023/04/21 06:12:59;;;;;;;50.08;35.00;;;;;;;;;;5087585;28;20269;-63
2023/04/21 06:15:24;;;;;;;46.42;33.10;;;;;;;;;;5084991;28;20210;-63
2023/04/21 06:17:54;;;;;;;47.53;33.75;;;;;;;;;;5080931;28;20208;-63
2023/04/21 06:20:19;;;;;;;45.88;33.85;;;;;;;;;;5080660;28;20218;-63
2023/04/21 06:22:44;;;;;;;46.40;35.72;;;;;;;;;;5085939;28;20197;-63
2023/04/21 06:25:10;;;;;;;44.10;33.25;;;;;;;;;;5080340;28;20203;-64
2023/04/21 06:27:35;;;;;;;47.75;34.63;;;;;;;;;;5087318;28;20205;-64
2023/04/21 06:30:00;;;;;;;47.55;33.95;;;;;;;;;;5084028;28;20210;-64
2023/04/21 06:32:26;;;;;;;46.38;34.33;;;;;;;;;;5080943;28;20218;-63
2023/04/21 06:34:51;;;;;;;43.53;33.28;;;;;;;;;;5073805;28;20210;-65
2023/04/21 06:37:16;;;;;;;43.35;32.38;;;;;;;;;;5072275;28;20249;-63
2023/04/21 06:39:42;;;;;;;41.58;31.88;;;;;;;;;;5072252;28;20265;-64
2023/04/21 06:42:07;;;;;;;43.75;34.42;;;;;;;;;;5072241;28;20685;-64
2023/04/21 06:44:32;;;;;;;40.25;31.63;;;;;;;;;;5077243;28;20264;-65
2023/04/21 06:46:58;;;;;;;40.38;32.20;;;;;;;;;;5072070;28;20685;-65
2023/04/21 06:49:23;;;;;;;42.65;33.05;;;;;;;;;;5072518;28;20214;-65
2023/04/21 06:51:48;;;;;;;44.22;33.90;;;;;;;;;;5074840;28;20214;-65
2023/04/21 06:54:13;;;;;;;44.40;33.55;;;;;;;;;;5082445;28;20218;-63
2023/04/21 06:56:40;;;;;;;43.00;34.03;;;;;;;;;;5082425;28;20272;-65
2023/04/21 06:59:05;;;;;;;44.75;33.30;;;;;;;;;;5077109;28;20287;-64
2023/04/21 07:01:30;;;;;;;38.30;31.30;;;;;;;;;;5072060;28;20685;-65
2023/04/21 07:03:56;;;;;;;41.75;32.38;;;;;;;;;;5092810;28;20210;-65
2023/04/21 07:06:21;;;;;;;44.67;34.90;;;;;;;;;;5066482;28;20207;-66
2023/04/21 07:08:46;;;;;;;44.38;33.63;;;;;;;;;;5054011;28;20289;-66
2023/04/21 07:11:11;;;;;;;43.97;34.08;;;;;;;;;;5088965;28;20217;-65
2023/04/21 07:13:37;;;;;;;45.05;35.33;;;;;;;;;;5078382;28;20218;-65
2023/04/21 07:16:02;;;;;;;43.70;34.47;;;;;;;;;;5077082;28;20580;-64
2023/04/21 07:18:27;;;;;;;40.88;32.72;;;;;;;;;;5090050;28;20206;-66
2023/04/21 07:20:53;;;;;;;44.05;33.33;;;;;;;;;;5087526;28;20221;-66
2023/04/21 07:23:18;;;;;;;45.40;34.38;;;;;;;;;;5071387;28;20649;-65
2023/04/21 07:25:43;;;;;;;40.10;32.08;;;;;;;;;;5082062;28;20210;-65
2023/04/21 07:28:09;;;;;;;40.50;32.92;;;;;;;;;;5070571;28;20692;-65
2023/04/21 07:30:35;;;;;;;43.42;34.08;;;;;;;;;;5072119;28;20210;-65
2023/04/21 07:33:00;;;;;;;36.95;30.17;;;;;;;;;;5071520;28;20581;-64
2023/04/21 07:35:25;;;;;;;41.00;32.53;;;;;;;;;;5069973;28;20211;-65
2023/04/21 07:37:51;;;;;;;40.58;31.77;;;;;;;;;;5071593;28;20297;-65
2023/04/21 07:40:16;;;;;;;42.63;33.58;;;;;;;;;;5071343;28;20704;-65
2023/04/21 07:42:41;;;;;;;42.25;34.03;;;;;;;;;;5069516;28;20211;-65
2023/04/21 07:45:07;;;;;;;41.53;33.22;;;;;;;;;;5071310;28;20217;-65
2023/04/21 07:47:32;;;;;;;40.13;32.58;;;;;;;;;;5071603;28;20256;-65
2023/04/21 07:49:57;;;;;;;42.03;32.70;;;;;;;;;;5069417;28;20221;-65
2023/04/21 07:52:23;;;;;;;38.85;33.50;;;;;;;;;;5070939;28;20234;-66
2023/04/21 07:54:48;;;;;;;43.75;32.85;;;;;;;;;;5070289;28;20210;-65
2023/04/21 07:57:13;;;;;;;42.00;33.33;;;;;;;;;;5070316;28;20210;-65
2023/04/21 07:59:39;;;;;;;43.50;32.53;;;;;;;;;;5071453;28;20271;-65
2023/04/21 08:02:04;;;;;;;40.58;32.28;;;;;;;;;;5070633;28;20680;-65
2023/04/21 08:04:30;;;;;;;40.47;33.00;;;;;;;;;;5069664;28;20245;-65
2023/04/21 08:06:55;;;;;;;42.58;32.83;;;;;;;;;;5089516;28;20208;-66
2023/04/21 08:09:20;;;;;;;44.85;35.30;;;;;;;;;;5083057;28;20226;-65
2023/04/21 08:11:46;;;;;;;41.15;34.00;;;;;;;;;;5071285;28;20210;-66
2023/04/21 08:14:11;;;;;;;41.88;33.13;;;;;;;;;;5070380;28;20202;-65
2023/04/21 08:16:37;;;;;;;42.47;32.10;;;;;;;;;;5080954;28;20210;-65
2023/04/21 08:19:03;;;;;;;40.10;32.95;;;;;;;;;;5090787;28;20220;-65
2023/04/21 08:21:28;;;;;;;43.75;34.30;;;;;;;;;;5091212;28;20217;-65
2023/04/21 08:23:54;;;;;;;40.70;32.47;;;;;;;;;;5084100;28;20205;-65
2023/04/21 08:26:20;;;;;;;38.85;32.72;;;;;;;;;;5070694;28;20313;-65
2023/04/21 08:28:48;;;;;;;42.97;33.72;;;;;;;;;;5070747;28;20283;-65
2023/04/21 08:31:13;;;;;;;49.22;36.78;;;;;;;;;;5069527;28;20640;-65
2023/04/21 08:33:38;;;;;;;40.97;33.00;;;;;;;;;;5070848;28;20202;-66
2023/04/21 08:36:04;;;;;;;41.33;32.72;;;;;;;;;;5070461;28;20551;-65
2023/04/21 08:38:29;;;;;;;39.63;32.78;;;;;;;;;;5069846;28;20219;-65
2023/04/21 08:40:55;;;;;;;38.35;32.17;;;;;;;;;;5070732;28;20696;-65
2023/04/21 08:43:20;;;;;;;38.72;31.83;;;;;;;;;;5068894;28;20218;-65
2023/04/21 08:45:45;;;;;;;38.38;30.40;;;;;;;;;;5070023;28;20213;-65
2023/04/21 08:48:11;;;;;;;38.17;30.80;;;;;;;;;;5068740;28;20293;-65
2023/04/21 08:50:36;;;;;;;37.65;31.10;;;;;;;;;;5069241;28;20293;-65
2023/04/21 08:53:02;;;;;;;35.83;30.33;;;;;;;;;;5069357;28;20289;-64
2023/04/21 08:55:28;;;;;;;35.80;29.92;;;;;;;;;;5070644;28;20218;-65
2023/04/21 08:57:53;;;;;;;35.45;29.38;;;;;;;;;;5070543;28;20211;-65
2023/04/21 09:00:18;;;;;;;37.40;30.85;;;;;;;;;;5068843;28;20222;-65
2023/04/21 09:02:51;;;;;;;37.53;31.38;;;;;;;;;;5069272;28;20201;-65
2023/04/21 09:05:20;;;;;;;36.65;30.50;;;;;;;;;;5068399;28;20712;-65
2023/04/21 09:07:45;;;;;;;39.13;31.30;;;;;;;;;;5068170;28;20206;-64
2023/04/21 09:10:11;;;;;;;36.08;29.52;;;;;;;;;;5083152;28;20209;-65
2023/04/21 09:12:38;;;;;;;36.72;29.55;;;;;;;;;;5088575;28;20340;-65
2023/04/21 09:15:04;;;;;;;36.20;30.30;;;;;;;;;;5089873;28;20221;-65
2023/04/21 09:17:31;;;;;;;33.65;29.42;;;;;;;;;;5069892;28;20202;-66
2023/04/21 09:19:56;;;;;;;34.17;28.60;;;;;;;;;;5069238;28;20296;-66
2023/04/21 09:22:25;;;;;;;34.90;29.48;;;;;;;;;;5069593;28;20263;-65
2023/04/21 09:24:55;;;;;;;37.28;30.60;;;;;;;;;;5068182;28;20213;-65
2023/04/21 09:27:21;;;;;;;36.47;29.27;;;;;;;;;;5068942;28;20248;-65
2023/04/21 09:29:47;;;;;;;36.80;29.33;;;;;;;;;;5068741;28;20741;-65
2023/04/21 09:32:18;;;;;;;34.88;28.42;;;;;;;;;;5069750;28;20552;-66
2023/04/21 09:34:44;;;;;;;35.58;28.90;;;;;;;;;;5069210;28;20209;-66
2023/04/21 09:37:09;;;;;;;39.20;28.42;;;;;;;;;;5069536;28;20210;-65
2023/04/21 09:39:35;;;;;;;34.20;28.88;;;;;;;;;;5069745;28;20209;-66
2023/04/21 09:42:01;;;;;;;36.10;29.45;;;;;;;;;;5069183;28;20244;-66
2023/04/21 09:44:26;;;;;;;36.85;28.42;;;;;;;;;;5069512;28;20245;-65
2023/04/21 09:46:53;;;;;;;36.50;29.13;;;;;;;;;;5051791;28;20206;-65
2023/04/21 09:49:18;;;;;;;34.75;27.75;;;;;;;;;;5068884;28;20214;-65
2023/04/21 09:51:44;;;;;;;36.97;28.70;;;;;;;;;;5068752;28;20578;-66
2023/04/21 09:54:14;;;;;;;37.60;30.58;;;;;;;;;;5069385;28;20249;-65
2023/04/21 09:56:40;;;;;;;34.35;29.35;;;;;;;;;;5067558;28;20222;-66
2023/04/21 09:59:05;;;;;;;34.85;28.15;;;;;;;;;;5068280;28;20465;-65
2023/04/21 10:01:31;;;;;;;35.92;29.42;;;;;;;;;;5069279;28;20745;-65
2023/04/21 10:03:56;;;;;;;34.40;28.20;;;;;;;;;;5067787;28;20206;-65
2023/04/21 10:06:22;;;;;;;36.63;29.17;;;;;;;;;;5081386;28;20271;-65
2023/04/21 10:08:47;;;;;;;32.28;28.10;;;;;;;;;;5085871;28;20218;-65
2023/04/21 10:11:12;;;;;;;35.90;28.58;;;;;;;;;;5067594;28;20712;-65
2023/04/21 10:13:37;;;;;;;37.13;29.92;;;;;;;;;;5069977;28;20294;-65
2023/04/21 10:16:04;;;;;;;34.10;28.95;;;;;;;;;;5074158;28;20248;-65
2023/04/21 10:18:29;;;;;;;33.70;28.27;;;;;;;;;;5088629;28;20313;-65
2023/04/21 10:20:56;;;;;;;35.85;28.13;;;;;;;;;;5089784;28;20308;-65
2023/04/21 10:23:27;;;;;;;34.85;30.50;;;;;;;;;;5086844;28;20213;-65
2023/04/21 10:25:53;;;;;;;34.60;28.60;;;;;;;;;;5069486;28;20293;-66
2023/04/21 10:28:18;;;;;;;32.90;29.27;;;;;;;;;;5069126;28;20305;-65
2023/04/21 10:30:44;;;;;;;35.80;29.05;;;;;;;;;;5067362;28;20207;-65
2023/04/21 10:33:09;;;;;;;34.67;28.70;;;;;;;;;;5069062;28;20217;-65
2023/04/21 10:35:56;;;;;;;37.22;28.58;;;;;;;;;;5070573;28;20213;-66
2023/04/21 10:38:34;;;;;;;36.42;29.27;;;;;;;;;;5071670;28;20233;-65
2023/04/21 10:41:18;;;;;;;34.88;27.70;;;;;;;;;;5071441;28;20297;-66
2023/04/21 10:43:44;;;;;;;34.55;28.80;;;;;;;;;;5072617;28;20485;-65
2023/04/21 10:46:27;;;;;;;34.60;28.00;;;;;;;;;;5070398;28;20208;-65
2023/04/21 10:48:53;;;;;;;37.45;28.08;;;;;;;;;;5072838;28;20218;-65
2023/04/21 10:51:18;;;;;;;32.70;27.05;;;;;;;;;;5071820;28;20735;-65
2023/04/21 10:53:43;;;;;;;33.25;27.40;;;;;;;;;;5071276;28;20237;-65
2023/04/21 10:56:09;;;;;;;32.80;27.08;;;;;;;;;;5072206;28;20202;-64
2023/04/21 10:58:35;;;;;;;34.47;27.90;;;;;;;;;;5070517;28;20620;-65
2023/04/21 11:01:02;;;;;;;31.83;26.10;;;;;;;;;;5070718;28;20218;-64
2023/04/21 11:03:32;;;;;;;33.15;27.23;;;;;;;;;;5071248;28;20211;-65
2023/04/21 11:05:58;;;;;;;31.63;26.58;;;;;;;;;;5071892;28;20677;-65
2023/04/21 11:08:23;;;;;;;35.60;28.23;;;;;;;;;;5071629;28;20235;-65
2023/04/21 11:10:51;;;;;;;32.17;26.98;;;;;;;;;;5091360;28;20202;-65
2023/04/21 11:13:16;;;;;;;31.30;25.63;;;;;;;;;;5089896;28;20202;-65
2023/04/21 11:15:54;;;;;;;32.70;26.58;;;;;;;;;;5088453;28;20225;-65
2023/04/21 11:18:19;;;;;;;32.00;26.35;;;;;;;;;;5071495;28;20592;-65
2023/04/21 11:20:45;;;;;;;33.80;27.02;;;;;;;;;;5071606;28;20222;-65
2023/04/21 11:23:15;;;;;;;31.77;27.88;;;;;;;;;;5071747;28;20298;-65
2023/04/21 11:25:44;;;;;;;30.83;26.60;;;;;;;;;;5072116;28;20206;-65
2023/04/21 11:28:09;;;;;;;33.50;26.98;;;;;;;;;;5070789;28;20335;-65
2023/04/21 11:30:35;;;;;;;34.42;28.13;;;;;;;;;;5072214;28;20293;-65
2023/04/21 11:33:00;;;;;;;33.42;27.85;;;;;;;;;;5072038;28;20567;-66
2023/04/21 11:35:25;;;;;;;34.97;27.13;;;;;;;;;;5070715;28;20588;-65
2023/04/21 11:37:51;;;;;;;32.53;26.92;;;;;;;;;;5071829;28;20303;-65
2023/04/21 11:40:16;;;;;;;31.70;25.98;;;;;;;;;;5070503;28;20219;-65
2023/04/21 11:42:41;;;;;;;35.65;27.95;;;;;;;;;;5071810;28;20297;-65
2023/04/21 11:45:07;;;;;;;31.75;26.15;;;;;;;;;;5071381;28;20203;-65
2023/04/21 11:47:32;;;;;;;31.08;27.40;;;;;;;;;;5070197;28;20222;-66
2023/04/21 11:50:01;;;;;;;36.38;29.42;;;;;;;;;;5070108;28;20205;-65
2023/04/21 11:52:27;;;;;;;35.38;28.48;;;;;;;;;;5071229;28;20718;-65
2023/04/21 11:54:59;;;;;;;36.38;28.25;;;;;;;;;;5070944;28;20213;-66
2023/04/21 11:57:25;;;;;;;34.20;27.00;;;;;;;;;;5069617;28;20264;-65
2023/04/21 11:59:50;;;;;;;32.45;27.30;;;;;;;;;;5071361;28;20203;-65
2023/04/21 12:02:21;;;;;;;33.40;27.38;;;;;;;;;;5070335;28;20264;-65
2023/04/21 12:04:55;;;;;;;35.60;28.48;;;;;;;;;;5071515;28;20281;-66
2023/04/21 12:07:21;;;;;;;30.65;25.85;;;;;;;;;;5091193;28;20217;-65
2023/04/21 12:09:50;;;;;;;33.33;26.02;;;;;;;;;;5078869;28;20306;-65
2023/04/21 12:12:15;;;;;;;32.85;26.77;;;;;;;;;;5070793;28;20222;-65
2023/04/21 12:14:40;;;;;;;32.78;26.52;;;;;;;;;;5070971;28;20229;-65
2023/04/21 12:17:05;;;;;;;37.25;26.60;;;;;;;;;;5061726;28;20211;-64
2023/04/21 12:19:38;;;;;;;33.55;26.95;;;;;;;;;;5071022;28;20203;-65
2023/04/21 12:22:08;;;;;;;35.38;26.65;;;;;;;;;;5070769;28;20296;-64
2023/04/21 12:24:33;;;;;;;30.63;24.88;;;;;;;;;;5068851;28;20227;-65
2023/04/21 12:26:58;;;;;;;32.38;26.15;;;;;;;;;;5090585;28;20671;-65
2023/04/21 12:29:24;;;;;;;35.95;27.55;;;;;;;;;;5079484;28;20294;-63
2023/04/21 12:31:49;;;;;;;31.23;26.52;;;;;;;;;;5081197;28;20218;-65
2023/04/21 12:34:15;;;;;;;33.33;26.05;;;;;;;;;;5082935;28;20241;-65
2023/04/21 12:36:40;;;;;;;31.58;25.27;;;;;;;;;;5078696;28;20313;-65
2023/04/21 12:39:06;;;;;;;31.35;25.17;;;;;;;;;;5090297;28;20214;-64
2023/04/21 12:41:33;;;;;;;29.55;24.80;;;;;;;;;;5089232;28;20221;-64
2023/04/21 12:43:58;;;;;;;28.40;23.38;;;;;;;;;;5089847;28;20201;-64
2023/04/21 12:46:24;;;;;;;28.33;22.73;;;;;;;;;;5090429;28;20217;-64
2023/04/21 12:48:51;;;;;;;28.48;21.52;;;;;;;;;;5090567;28;20285;-64
2023/04/21 12:51:16;;;;;;;27.63;21.98;;;;;;;;;;5089699;28;20229;-64
2023/04/21 12:53:41;;;;;;;28.58;20.90;;;;;;;;;;5090820;28;20222;-64
2023/04/21 12:56:07;;;;;;;25.10;20.65;;;;;;;;;;5090251;28;20788;-64
2023/04/21 12:58:32;;;;;;;25.58;20.70;;;;;;;;;;5089070;28;20215;-64
2023/04/21 13:00:57;;;;;;;25.20;19.60;;;;;;;;;;5090398;28;20222;-64
2023/04/21 13:03:23;;;;;;;23.60;18.35;;;;;;;;;;5088739;28;20216;-64
2023/04/21 13:05:48;;;;;;;21.60;17.73;;;;;;;;;;5080742;28;20207;-64
2023/04/21 13:08:13;;;;;;;24.58;18.85;;;;;;;;;;5069689;28;20233;-63
2023/04/21 13:10:39;;;;;;;20.92;16.95;;;;;;;;;;5087772;28;20209;-65
2023/04/21 13:13:04;;;;;;;21.77;17.90;;;;;;;;;;5075410;28;20237;-64
2023/04/21 13:15:30;;;;;;;23.58;18.75;;;;;;;;;;5080802;28;20200;-64
2023/04/21 13:17:55;;;;;;;22.05;18.00;;;;;;;;;;5070208;28;20681;-64
2023/04/21 13:20:21;;;;;;;22.20;18.73;;;;;;;;;;5072047;28;20305;-63
2023/04/21 13:22:46;;;;;;;23.30;19.55;;;;;;;;;;5069448;28;20203;-63
2023/04/21 13:25:12;;;;;;;24.50;20.02;;;;;;;;;;5074868;28;20214;-63
2023/04/21 13:27:38;;;;;;;25.38;20.10;;;;;;;;;;5089654;28;20201;-63
2023/04/21 13:30:06;;;;;;;26.67;21.08;;;;;;;;;;5089658;28;20217;-63
2023/04/21 13:32:31;;;;;;;24.92;19.92;;;;;;;;;;5089169;28;20413;-63
2023/04/21 13:34:57;;;;;;;25.27;19.80;;;;;;;;;;5089412;28;20217;-63
2023/04/21 13:37:22;;;;;;;25.45;20.40;;;;;;;;;;5085469;28;20684;-63
2023/04/21 13:39:47;;;;;;;24.90;21.00;;;;;;;;;;5077231;28;20217;-64
2023/04/21 13:42:13;;;;;;;27.23;22.10;;;;;;;;;;5073901;28;20321;-64
2023/04/21 13:44:38;;;;;;;26.45;21.30;;;;;;;;;;5069821;28;20249;-64
2023/04/21 13:47:03;;;;;;;25.40;20.50;;;;;;;;;;5068827;28;20210;-63
2023/04/21 13:49:29;;;;;;;24.48;20.35;;;;;;;;;;5076450;28;20206;-63
2023/04/21 13:51:54;;;;;;;25.17;21.02;;;;;;;;;;5081007;28;20233;-63
2023/04/21 13:54:19;;;;;;;25.27;21.52;;;;;;;;;;5085575;28;20286;-63
2023/04/21 13:56:44;;;;;;;26.30;21.45;;;;;;;;;;5084015;28;20206;-64
2023/04/21 13:59:10;;;;;;;25.55;19.95;;;;;;;;;;5068811;28;20252;-64
2023/04/21 14:01:36;;;;;;;28.23;21.02;;;;;;;;;;5071196;28;20252;-64
2023/04/21 14:04:01;;;;;;;25.95;20.25;;;;;;;;;;5068964;28;20668;-65
2023/04/21 14:06:27;;;;;;;25.75;20.85;;;;;;;;;;5080600;28;20214;-62
2023/04/21 14:08:52;;;;;;;27.00;22.67;;;;;;;;;;5080615;28;20619;-62